sensor_id;sensor_type;location;lat;lon;timestamp;temperature;humidity
14401;DHT22;7285;50.894;5.462;2024-01-30T00:01:08;8.40;99.90
14401;DHT22;7285;50.894;5.462;2024-01-30T00:03:35;8.30;99.90
14401;DHT22;7285;50.894;5.462;2024-01-30T00:06:04;8.30;99.90
14401;DHT22;7285;50.894;5.462;2024-01-30T00:08:31;8.20;99.90
14401;DHT22;7285;50.894;5.462;2024-01-30T00:10:58;8.20;99.90
14401;DHT22;7285;50.894;5.462;2024-01-30T00:13:26;8.20;99.90
14401;DHT22;7285;50.894;5.462;2024-01-30T00:15:53;8.20;99.90
14401;DHT22;7285;50.894;5.462;2024-01-30T00:18:20;8.10;99.90
14401;DHT22;7285;50.894;5.462;2024-01-30T00:20:47;8.10;99.90
14401;DHT22;7285;50.894;5.462;2024-01-30T00:23:16;8.10;99.90
14401;DHT22;7285;50.894;5.462;2024-01-30T00:25:43;8.20;99.90
14401;DHT22;7285;50.894;5.462;2024-01-30T00:28:10;8.20;99.90
14401;DHT22;7285;50.894;5.462;2024-01-30T00:30:37;8.20;99.90
14401;DHT22;7285;50.894;5.462;2024-01-30T00:33:04;8.10;99.90
14401;DHT22;7285;50.894;5.462;2024-01-30T00:35:31;8.10;99.90
14401;DHT22;7285;50.894;5.462;2024-01-30T00:37:58;8.10;99.90
14401;DHT22;7285;50.894;5.462;2024-01-30T00:40:27;8.00;99.90
14401;DHT22;7285;50.894;5.462;2024-01-30T00:42:54;8.00;99.90
14401;DHT22;7285;50.894;5.462;2024-01-30T00:45:21;8.00;99.90
14401;DHT22;7285;50.894;5.462;2024-01-30T00:47:48;8.00;99.90
14401;DHT22;7285;50.894;5.462;2024-01-30T00:50:15;8.00;99.90
14401;DHT22;7285;50.894;5.462;2024-01-30T00:52:42;7.90;99.90
14401;DHT22;7285;50.894;5.462;2024-01-30T00:55:10;7.80;99.90
14401;DHT22;7285;50.894;5.462;2024-01-30T00:57:39;7.80;99.90
14401;DHT22;7285;50.894;5.462;2024-01-30T01:00:08;7.80;99.90
14401;DHT22;7285;50.894;5.462;2024-01-30T01:02:35;7.80;99.90
14401;DHT22;7285;50.894;5.462;2024-01-30T01:05:03;7.80;99.90
14401;DHT22;7285;50.894;5.462;2024-01-30T01:07:30;7.80;99.90
14401;DHT22;7285;50.894;5.462;2024-01-30T01:09:57;7.90;99.90
14401;DHT22;7285;50.894;5.462;2024-01-30T01:12:24;7.90;99.90
14401;DHT22;7285;50.894;5.462;2024-01-30T01:14:52;7.90;99.90
14401;DHT22;7285;50.894;5.462;2024-01-30T01:17:19;7.90;99.90
14401;DHT22;7285;50.894;5.462;2024-01-30T01:19:47;8.10;99.90
14401;DHT22;7285;50.894;5.462;2024-01-30T01:22:14;8.00;99.90
14401;DHT22;7285;50.894;5.462;2024-01-30T01:24:41;8.20;99.90
14401;DHT22;7285;50.894;5.462;2024-01-30T01:27:08;8.30;99.90
14401;DHT22;7285;50.894;5.462;2024-01-30T01:29:35;8.20;99.90
14401;DHT22;7285;50.894;5.462;2024-01-30T01:32:03;8.20;99.90
14401;DHT22;7285;50.894;5.462;2024-01-30T01:34:31;8.20;99.90
14401;DHT22;7285;50.894;5.462;2024-01-30T01:36:58;8.40;99.90
14401;DHT22;7285;50.894;5.462;2024-01-30T01:39:25;8.50;99.90
14401;DHT22;7285;50.894;5.462;2024-01-30T01:41:52;8.50;99.90
14401;DHT22;7285;50.894;5.462;2024-01-30T01:44:19;8.60;99.90
14401;DHT22;7285;50.894;5.462;2024-01-30T01:46:47;8.70;99.90
14401;DHT22;7285;50.894;5.462;2024-01-30T01:49:15;8.60;99.90
14401;DHT22;7285;50.894;5.462;2024-01-30T01:51:43;8.70;99.90
14401;DHT22;7285;50.894;5.462;2024-01-30T01:54:11;8.80;99.90
14401;DHT22;7285;50.894;5.462;2024-01-30T01:56:39;8.80;99.90
14401;DHT22;7285;50.894;5.462;2024-01-30T01:59:07;8.90;99.90
14401;DHT22;7285;50.894;5.462;2024-01-30T02:01:36;9.00;99.90
14401;DHT22;7285;50.894;5.462;2024-01-30T02:04:04;9.00;99.90
14401;DHT22;7285;50.894;5.462;2024-01-30T02:06:33;9.10;99.90
14401;DHT22;7285;50.894;5.462;2024-01-30T02:09:01;9.00;99.90
14401;DHT22;7285;50.894;5.462;2024-01-30T02:11:30;9.00;99.90
14401;DHT22;7285;50.894;5.462;2024-01-30T02:14:02;9.10;99.90
14401;DHT22;7285;50.894;5.462;2024-01-30T02:16:29;9.20;99.90
14401;DHT22;7285;50.894;5.462;2024-01-30T02:18:56;9.20;99.90
14401;DHT22;7285;50.894;5.462;2024-01-30T02:21:24;9.30;99.90
14401;DHT22;7285;50.894;5.462;2024-01-30T02:23:52;9.30;99.90
14401;DHT22;7285;50.894;5.462;2024-01-30T02:26:20;9.30;99.90
14401;DHT22;7285;50.894;5.462;2024-01-30T02:28:47;9.40;99.90
14401;DHT22;7285;50.894;5.462;2024-01-30T02:31:14;9.30;99.90
14401;DHT22;7285;50.894;5.462;2024-01-30T02:33:40;9.40;99.90
14401;DHT22;7285;50.894;5.462;2024-01-30T02:36:07;9.40;99.90
14401;DHT22;7285;50.894;5.462;2024-01-30T02:38:36;9.40;99.90
14401;DHT22;7285;50.894;5.462;2024-01-30T02:41:03;9.40;99.90
14401;DHT22;7285;50.894;5.462;2024-01-30T02:43:30;9.40;99.90
14401;DHT22;7285;50.894;5.462;2024-01-30T02:45:57;9.50;99.90
14401;DHT22;7285;50.894;5.462;2024-01-30T02:48:25;9.40;99.90
14401;DHT22;7285;50.894;5.462;2024-01-30T02:50:52;9.50;99.90
14401;DHT22;7285;50.894;5.462;2024-01-30T02:53:19;9.50;99.90
14401;DHT22;7285;50.894;5.462;2024-01-30T02:55:47;9.40;99.90
14401;DHT22;7285;50.894;5.462;2024-01-30T02:58:14;9.40;99.90
14401;DHT22;7285;50.894;5.462;2024-01-30T03:00:41;9.40;99.90
14401;DHT22;7285;50.894;5.462;2024-01-30T03:03:08;9.40;99.90
14401;DHT22;7285;50.894;5.462;2024-01-30T03:05:34;9.40;99.90
14401;DHT22;7285;50.894;5.462;2024-01-30T03:08:02;9.40;99.90
14401;DHT22;7285;50.894;5.462;2024-01-30T03:10:30;9.40;99.90
14401;DHT22;7285;50.894;5.462;2024-01-30T03:12:58;9.40;99.90
14401;DHT22;7285;50.894;5.462;2024-01-30T03:15:25;9.40;99.90
14401;DHT22;7285;50.894;5.462;2024-01-30T03:17:53;9.50;99.90
14401;DHT22;7285;50.894;5.462;2024-01-30T03:20:20;9.60;99.90
14401;DHT22;7285;50.894;5.462;2024-01-30T03:22:47;9.60;99.90
14401;DHT22;7285;50.894;5.462;2024-01-30T03:25:14;9.70;99.90
14401;DHT22;7285;50.894;5.462;2024-01-30T03:27:41;9.60;99.90
14401;DHT22;7285;50.894;5.462;2024-01-30T03:30:10;9.60;99.90
14401;DHT22;7285;50.894;5.462;2024-01-30T03:32:36;9.70;99.90
14401;DHT22;7285;50.894;5.462;2024-01-30T03:35:04;9.70;99.90
14401;DHT22;7285;50.894;5.462;2024-01-30T03:37:31;9.70;99.90
14401;DHT22;7285;50.894;5.462;2024-01-30T03:39:58;9.50;99.90
14401;DHT22;7285;50.894;5.462;2024-01-30T03:42:25;9.60;99.90
14401;DHT22;7285;50.894;5.462;2024-01-30T03:44:52;9.60;99.90
14401;DHT22;7285;50.894;5.462;2024-01-30T03:47:20;9.60;99.90
14401;DHT22;7285;50.894;5.462;2024-01-30T03:49:47;9.70;99.90
14401;DHT22;7285;50.894;5.462;2024-01-30T03:52:14;9.60;99.90
14401;DHT22;7285;50.894;5.462;2024-01-30T03:54:41;9.60;99.90
14401;DHT22;7285;50.894;5.462;2024-01-30T03:57:08;9.50;99.90
14401;DHT22;7285;50.894;5.462;2024-01-30T03:59:35;9.40;99.90
14401;DHT22;7285;50.894;5.462;2024-01-30T04:02:02;9.40;99.90
14401;DHT22;7285;50.894;5.462;2024-01-30T04:04:31;9.40;99.90
14401;DHT22;7285;50.894;5.462;2024-01-30T04:06:58;9.40;99.90
14401;DHT22;7285;50.894;5.462;2024-01-30T04:09:24;9.30;99.90
14401;DHT22;7285;50.894;5.462;2024-01-30T04:11:54;9.20;99.90
14401;DHT22;7285;50.894;5.462;2024-01-30T04:14:21;9.20;99.90
14401;DHT22;7285;50.894;5.462;2024-01-30T04:16:48;9.30;99.90
14401;DHT22;7285;50.894;5.462;2024-01-30T04:19:14;9.30;99.90
14401;DHT22;7285;50.894;5.462;2024-01-30T04:21:43;9.40;99.90
14401;DHT22;7285;50.894;5.462;2024-01-30T04:24:09;9.40;99.90
14401;DHT22;7285;50.894;5.462;2024-01-30T04:26:36;9.30;99.90
14401;DHT22;7285;50.894;5.462;2024-01-30T04:29:03;9.30;99.90
14401;DHT22;7285;50.894;5.462;2024-01-30T04:31:30;9.30;99.90
14401;DHT22;7285;50.894;5.462;2024-01-30T04:33:57;9.40;99.90
14401;DHT22;7285;50.894;5.462;2024-01-30T04:36:24;9.40;99.90
14401;DHT22;7285;50.894;5.462;2024-01-30T04:38:52;9.30;99.90
14401;DHT22;7285;50.894;5.462;2024-01-30T04:41:19;9.40;99.90
14401;DHT22;7285;50.894;5.462;2024-01-30T04:43:46;9.40;99.90
14401;DHT22;7285;50.894;5.462;2024-01-30T04:46:13;9.40;99.90
14401;DHT22;7285;50.894;5.462;2024-01-30T04:48:39;9.20;99.90
14401;DHT22;7285;50.894;5.462;2024-01-30T04:51:06;9.20;99.90
14401;DHT22;7285;50.894;5.462;2024-01-30T04:53:33;9.20;99.90
14401;DHT22;7285;50.894;5.462;2024-01-30T04:56:02;9.20;99.90
14401;DHT22;7285;50.894;5.462;2024-01-30T04:58:29;9.20;99.90
14401;DHT22;7285;50.894;5.462;2024-01-30T05:00:56;9.30;99.90
14401;DHT22;7285;50.894;5.462;2024-01-30T05:03:23;9.30;99.90
14401;DHT22;7285;50.894;5.462;2024-01-30T05:05:50;9.40;99.90
14401;DHT22;7285;50.894;5.462;2024-01-30T05:08:16;9.50;99.90
14401;DHT22;7285;50.894;5.462;2024-01-30T05:10:43;9.50;99.90
14401;DHT22;7285;50.894;5.462;2024-01-30T05:13:12;9.50;99.90
14401;DHT22;7285;50.894;5.462;2024-01-30T05:15:39;9.40;99.90
14401;DHT22;7285;50.894;5.462;2024-01-30T05:18:06;9.40;99.90
14401;DHT22;7285;50.894;5.462;2024-01-30T05:20:33;9.50;99.90
14401;DHT22;7285;50.894;5.462;2024-01-30T05:23:00;9.50;99.90
14401;DHT22;7285;50.894;5.462;2024-01-30T05:25:27;9.50;99.90
14401;DHT22;7285;50.894;5.462;2024-01-30T05:27:54;9.50;99.90
14401;DHT22;7285;50.894;5.462;2024-01-30T05:30:23;9.40;99.90
14401;DHT22;7285;50.894;5.462;2024-01-30T05:32:50;9.50;99.90
14401;DHT22;7285;50.894;5.462;2024-01-30T05:35:18;9.50;99.90
14401;DHT22;7285;50.894;5.462;2024-01-30T05:37:48;9.60;99.90
14401;DHT22;7285;50.894;5.462;2024-01-30T05:40:16;9.60;99.90
14401;DHT22;7285;50.894;5.462;2024-01-30T05:42:43;9.60;99.90
14401;DHT22;7285;50.894;5.462;2024-01-30T05:45:10;9.70;99.90
14401;DHT22;7285;50.894;5.462;2024-01-30T05:47:38;9.60;99.90
14401;DHT22;7285;50.894;5.462;2024-01-30T05:50:06;9.70;99.90
14401;DHT22;7285;50.894;5.462;2024-01-30T05:52:33;9.60;99.90
14401;DHT22;7285;50.894;5.462;2024-01-30T05:55:00;9.60;99.90
14401;DHT22;7285;50.894;5.462;2024-01-30T05:57:28;9.60;99.90
14401;DHT22;7285;50.894;5.462;2024-01-30T05:59:56;9.60;99.90
14401;DHT22;7285;50.894;5.462;2024-01-30T06:02:22;9.60;99.90
14401;DHT22;7285;50.894;5.462;2024-01-30T06:04:51;9.70;99.90
14401;DHT22;7285;50.894;5.462;2024-01-30T06:07:18;9.70;99.90
14401;DHT22;7285;50.894;5.462;2024-01-30T06:09:44;9.70;99.90
14401;DHT22;7285;50.894;5.462;2024-01-30T06:12:12;9.80;99.90
14401;DHT22;7285;50.894;5.462;2024-01-30T06:14:39;9.80;99.90
14401;DHT22;7285;50.894;5.462;2024-01-30T06:17:08;9.90;99.90
14401;DHT22;7285;50.894;5.462;2024-01-30T06:19:35;9.90;99.90
14401;DHT22;7285;50.894;5.462;2024-01-30T06:22:04;9.90;99.90
14401;DHT22;7285;50.894;5.462;2024-01-30T06:24:30;9.90;99.90
14401;DHT22;7285;50.894;5.462;2024-01-30T06:26:57;10.00;99.90
14401;DHT22;7285;50.894;5.462;2024-01-30T06:29:24;10.00;99.90
14401;DHT22;7285;50.894;5.462;2024-01-30T06:31:52;10.00;99.90
14401;DHT22;7285;50.894;5.462;2024-01-30T06:34:19;10.00;99.90
14401;DHT22;7285;50.894;5.462;2024-01-30T06:36:46;10.00;99.90
14401;DHT22;7285;50.894;5.462;2024-01-30T06:39:14;10.00;99.90
14401;DHT22;7285;50.894;5.462;2024-01-30T06:41:41;10.00;99.90
14401;DHT22;7285;50.894;5.462;2024-01-30T06:44:08;10.00;99.90
14401;DHT22;7285;50.894;5.462;2024-01-30T06:46:35;9.90;99.90
14401;DHT22;7285;50.894;5.462;2024-01-30T06:49:02;9.80;99.90
14401;DHT22;7285;50.894;5.462;2024-01-30T06:51:29;9.80;99.90
14401;DHT22;7285;50.894;5.462;2024-01-30T06:53:56;9.70;99.90
14401;DHT22;7285;50.894;5.462;2024-01-30T06:56:25;9.70;99.90
14401;DHT22;7285;50.894;5.462;2024-01-30T06:58:52;9.60;99.90
14401;DHT22;7285;50.894;5.462;2024-01-30T07:01:19;9.60;99.90
14401;DHT22;7285;50.894;5.462;2024-01-30T07:03:46;9.60;99.90
14401;DHT22;7285;50.894;5.462;2024-01-30T07:06:13;9.50;99.90
14401;DHT22;7285;50.894;5.462;2024-01-30T07:08:40;9.50;99.90
14401;DHT22;7285;50.894;5.462;2024-01-30T07:11:07;9.50;99.90
14401;DHT22;7285;50.894;5.462;2024-01-30T07:13:36;9.40;99.90
14401;DHT22;7285;50.894;5.462;2024-01-30T07:16:03;9.40;99.90
14401;DHT22;7285;50.894;5.462;2024-01-30T07:18:30;9.40;99.90
14401;DHT22;7285;50.894;5.462;2024-01-30T07:20:57;9.40;99.90
14401;DHT22;7285;50.894;5.462;2024-01-30T07:23:24;9.30;99.90
14401;DHT22;7285;50.894;5.462;2024-01-30T07:25:51;9.40;99.90
14401;DHT22;7285;50.894;5.462;2024-01-30T07:28:18;9.40;99.90
14401;DHT22;7285;50.894;5.462;2024-01-30T07:30:46;9.40;99.90
14401;DHT22;7285;50.894;5.462;2024-01-30T07:33:14;9.50;99.90
14401;DHT22;7285;50.894;5.462;2024-01-30T07:35:41;9.50;99.90
14401;DHT22;7285;50.894;5.462;2024-01-30T07:38:08;9.60;99.90
14401;DHT22;7285;50.894;5.462;2024-01-30T07:40:35;9.60;99.90
14401;DHT22;7285;50.894;5.462;2024-01-30T07:43:02;9.50;99.90
14401;DHT22;7285;50.894;5.462;2024-01-30T07:45:29;9.50;99.90
14401;DHT22;7285;50.894;5.462;2024-01-30T07:47:59;9.50;99.90
14401;DHT22;7285;50.894;5.462;2024-01-30T07:50:26;9.50;99.90
14401;DHT22;7285;50.894;5.462;2024-01-30T07:52:53;9.50;99.90
14401;DHT22;7285;50.894;5.462;2024-01-30T07:55:21;9.60;99.90
14401;DHT22;7285;50.894;5.462;2024-01-30T07:57:51;9.60;99.90
14401;DHT22;7285;50.894;5.462;2024-01-30T08:00:18;9.60;99.90
14401;DHT22;7285;50.894;5.462;2024-01-30T08:02:46;9.60;99.90
14401;DHT22;7285;50.894;5.462;2024-01-30T08:05:14;9.60;99.90
14401;DHT22;7285;50.894;5.462;2024-01-30T08:07:41;9.60;99.90
14401;DHT22;7285;50.894;5.462;2024-01-30T08:10:11;9.60;99.90
14401;DHT22;7285;50.894;5.462;2024-01-30T08:12:38;9.70;99.90
14401;DHT22;7285;50.894;5.462;2024-01-30T08:15:06;9.70;99.90
14401;DHT22;7285;50.894;5.462;2024-01-30T08:17:33;9.70;99.90
14401;DHT22;7285;50.894;5.462;2024-01-30T08:20:00;9.80;99.90
14401;DHT22;7285;50.894;5.462;2024-01-30T08:22:30;9.90;99.90
14401;DHT22;7285;50.894;5.462;2024-01-30T08:24:57;9.90;99.90
14401;DHT22;7285;50.894;5.462;2024-01-30T08:27:24;10.00;99.90
14401;DHT22;7285;50.894;5.462;2024-01-30T08:29:51;10.00;99.90
14401;DHT22;7285;50.894;5.462;2024-01-30T08:32:18;10.10;99.90
14401;DHT22;7285;50.894;5.462;2024-01-30T08:34:45;10.20;99.90
14401;DHT22;7285;50.894;5.462;2024-01-30T08:37:12;10.20;99.90
14401;DHT22;7285;50.894;5.462;2024-01-30T08:39:43;10.30;99.90
14401;DHT22;7285;50.894;5.462;2024-01-30T08:42:10;10.30;99.90
14401;DHT22;7285;50.894;5.462;2024-01-30T08:44:37;10.30;99.90
14401;DHT22;7285;50.894;5.462;2024-01-30T08:47:04;10.40;99.90
14401;DHT22;7285;50.894;5.462;2024-01-30T08:49:31;10.40;99.90
14401;DHT22;7285;50.894;5.462;2024-01-30T08:51:58;10.50;99.90
14401;DHT22;7285;50.894;5.462;2024-01-30T08:54:25;10.50;99.90
14401;DHT22;7285;50.894;5.462;2024-01-30T08:56:53;10.60;99.90
14401;DHT22;7285;50.894;5.462;2024-01-30T08:59:22;10.60;99.90
14401;DHT22;7285;50.894;5.462;2024-01-30T09:01:48;10.70;99.90
14401;DHT22;7285;50.894;5.462;2024-01-30T09:04:19;10.70;99.90
14401;DHT22;7285;50.894;5.462;2024-01-30T09:06:45;10.80;99.90
14401;DHT22;7285;50.894;5.462;2024-01-30T09:09:13;10.80;99.90
14401;DHT22;7285;50.894;5.462;2024-01-30T09:11:40;10.90;99.90
14401;DHT22;7285;50.894;5.462;2024-01-30T09:14:08;11.00;99.90
14401;DHT22;7285;50.894;5.462;2024-01-30T09:16:35;11.10;99.90
14401;DHT22;7285;50.894;5.462;2024-01-30T09:19:02;11.20;99.90
14401;DHT22;7285;50.894;5.462;2024-01-30T09:21:29;11.20;99.90
14401;DHT22;7285;50.894;5.462;2024-01-30T09:24:02;11.20;99.90
14401;DHT22;7285;50.894;5.462;2024-01-30T09:26:29;11.20;99.90
14401;DHT22;7285;50.894;5.462;2024-01-30T09:28:56;11.30;99.90
14401;DHT22;7285;50.894;5.462;2024-01-30T09:31:24;11.30;99.90
14401;DHT22;7285;50.894;5.462;2024-01-30T09:33:51;11.30;99.90
14401;DHT22;7285;50.894;5.462;2024-01-30T09:36:19;11.30;99.90
14401;DHT22;7285;50.894;5.462;2024-01-30T09:38:46;11.40;99.90
14401;DHT22;7285;50.894;5.462;2024-01-30T09:41:14;11.40;99.90
14401;DHT22;7285;50.894;5.462;2024-01-30T09:43:42;11.40;99.90
14401;DHT22;7285;50.894;5.462;2024-01-30T09:46:15;11.30;99.90
14401;DHT22;7285;50.894;5.462;2024-01-30T09:48:46;11.40;99.90
14401;DHT22;7285;50.894;5.462;2024-01-30T09:51:14;11.40;99.90
14401;DHT22;7285;50.894;5.462;2024-01-30T09:53:42;11.40;99.90
14401;DHT22;7285;50.894;5.462;2024-01-30T09:56:10;11.40;99.90
14401;DHT22;7285;50.894;5.462;2024-01-30T09:58:37;11.30;99.90
14401;DHT22;7285;50.894;5.462;2024-01-30T10:01:05;11.40;99.90
14401;DHT22;7285;50.894;5.462;2024-01-30T10:03:32;11.40;99.90
14401;DHT22;7285;50.894;5.462;2024-01-30T10:06:01;11.40;99.90
14401;DHT22;7285;50.894;5.462;2024-01-30T10:08:28;11.40;99.90
14401;DHT22;7285;50.894;5.462;2024-01-30T10:10:55;11.50;99.90
14401;DHT22;7285;50.894;5.462;2024-01-30T10:13:22;11.60;99.90
14401;DHT22;7285;50.894;5.462;2024-01-30T10:15:49;11.70;99.90
14401;DHT22;7285;50.894;5.462;2024-01-30T10:18:17;11.70;99.90
14401;DHT22;7285;50.894;5.462;2024-01-30T10:20:44;11.80;99.90
14401;DHT22;7285;50.894;5.462;2024-01-30T10:23:12;11.80;99.90
14401;DHT22;7285;50.894;5.462;2024-01-30T10:25:39;11.90;99.90
14401;DHT22;7285;50.894;5.462;2024-01-30T10:28:07;12.00;99.90
14401;DHT22;7285;50.894;5.462;2024-01-30T10:30:34;12.10;99.90
14401;DHT22;7285;50.894;5.462;2024-01-30T10:33:01;12.20;99.90
14401;DHT22;7285;50.894;5.462;2024-01-30T10:35:28;12.30;99.90
14401;DHT22;7285;50.894;5.462;2024-01-30T10:37:57;12.30;99.90
14401;DHT22;7285;50.894;5.462;2024-01-30T10:40:28;12.50;99.90
14401;DHT22;7285;50.894;5.462;2024-01-30T10:42:55;12.60;99.90
14401;DHT22;7285;50.894;5.462;2024-01-30T10:45:23;12.60;99.90
14401;DHT22;7285;50.894;5.462;2024-01-30T10:47:54;12.50;99.90
14401;DHT22;7285;50.894;5.462;2024-01-30T10:50:24;12.50;99.90
14401;DHT22;7285;50.894;5.462;2024-01-30T10:52:52;12.50;99.90
14401;DHT22;7285;50.894;5.462;2024-01-30T10:55:22;12.40;99.90
14401;DHT22;7285;50.894;5.462;2024-01-30T10:57:51;12.40;99.90
14401;DHT22;7285;50.894;5.462;2024-01-30T11:00:19;12.40;99.90
14401;DHT22;7285;50.894;5.462;2024-01-30T11:02:49;12.50;99.90
14401;DHT22;7285;50.894;5.462;2024-01-30T11:05:23;12.50;99.90
14401;DHT22;7285;50.894;5.462;2024-01-30T11:07:51;12.50;99.90
14401;DHT22;7285;50.894;5.462;2024-01-30T11:10:19;12.40;99.90
14401;DHT22;7285;50.894;5.462;2024-01-30T11:12:46;12.40;99.90
14401;DHT22;7285;50.894;5.462;2024-01-30T11:15:15;12.40;99.90
14401;DHT22;7285;50.894;5.462;2024-01-30T11:17:44;12.30;99.90
14401;DHT22;7285;50.894;5.462;2024-01-30T11:20:12;12.30;99.90
14401;DHT22;7285;50.894;5.462;2024-01-30T11:22:42;12.30;99.90
14401;DHT22;7285;50.894;5.462;2024-01-30T11:25:14;12.30;99.90
14401;DHT22;7285;50.894;5.462;2024-01-30T11:27:42;12.30;99.90
14401;DHT22;7285;50.894;5.462;2024-01-30T11:30:10;12.20;99.90
14401;DHT22;7285;50.894;5.462;2024-01-30T11:32:38;12.20;99.90
14401;DHT22;7285;50.894;5.462;2024-01-30T11:35:06;12.20;99.90
14401;DHT22;7285;50.894;5.462;2024-01-30T11:37:37;12.20;99.90
14401;DHT22;7285;50.894;5.462;2024-01-30T11:40:05;12.10;99.90
14401;DHT22;7285;50.894;5.462;2024-01-30T11:42:34;12.10;99.90
14401;DHT22;7285;50.894;5.462;2024-01-30T11:45:05;12.00;99.90
14401;DHT22;7285;50.894;5.462;2024-01-30T11:47:35;12.00;99.90
14401;DHT22;7285;50.894;5.462;2024-01-30T11:50:03;12.00;99.90
14401;DHT22;7285;50.894;5.462;2024-01-30T11:52:32;11.90;99.90
14401;DHT22;7285;50.894;5.462;2024-01-30T11:54:59;11.90;99.90
14401;DHT22;7285;50.894;5.462;2024-01-30T11:57:27;11.90;99.90
14401;DHT22;7285;50.894;5.462;2024-01-30T11:59:54;11.90;99.90
14401;DHT22;7285;50.894;5.462;2024-01-30T12:02:21;11.90;99.90
14401;DHT22;7285;50.894;5.462;2024-01-30T12:04:48;11.90;99.90
14401;DHT22;7285;50.894;5.462;2024-01-30T12:07:17;11.90;99.90
14401;DHT22;7285;50.894;5.462;2024-01-30T12:09:52;11.90;99.90
14401;DHT22;7285;50.894;5.462;2024-01-30T12:12:19;11.90;99.90
14401;DHT22;7285;50.894;5.462;2024-01-30T12:14:48;11.90;99.90
14401;DHT22;7285;50.894;5.462;2024-01-30T12:17:23;11.90;99.90
14401;DHT22;7285;50.894;5.462;2024-01-30T12:19:50;11.90;99.90
14401;DHT22;7285;50.894;5.462;2024-01-30T12:22:21;11.80;99.90
14401;DHT22;7285;50.894;5.462;2024-01-30T12:24:48;11.80;99.90
14401;DHT22;7285;50.894;5.462;2024-01-30T12:27:16;11.80;99.90
14401;DHT22;7285;50.894;5.462;2024-01-30T12:29:43;11.80;99.90
14401;DHT22;7285;50.894;5.462;2024-01-30T12:32:15;11.70;99.90
14401;DHT22;7285;50.894;5.462;2024-01-30T12:34:42;11.80;99.90
14401;DHT22;7285;50.894;5.462;2024-01-30T12:37:09;11.70;99.90
14401;DHT22;7285;50.894;5.462;2024-01-30T12:39:38;11.80;99.90
14401;DHT22;7285;50.894;5.462;2024-01-30T12:42:05;11.80;99.90
14401;DHT22;7285;50.894;5.462;2024-01-30T12:44:32;11.90;99.90
14401;DHT22;7285;50.894;5.462;2024-01-30T12:47:03;11.90;99.90
14401;DHT22;7285;50.894;5.462;2024-01-30T12:49:29;12.00;99.90
14401;DHT22;7285;50.894;5.462;2024-01-30T12:51:56;12.00;99.90
14401;DHT22;7285;50.894;5.462;2024-01-30T12:54:25;12.00;99.90
14401;DHT22;7285;50.894;5.462;2024-01-30T12:56:53;12.00;99.90
14401;DHT22;7285;50.894;5.462;2024-01-30T12:59:20;12.10;99.90
14401;DHT22;7285;50.894;5.462;2024-01-30T13:01:47;12.20;99.90
14401;DHT22;7285;50.894;5.462;2024-01-30T13:04:14;12.10;99.90
14401;DHT22;7285;50.894;5.462;2024-01-30T13:06:42;12.10;99.90
14401;DHT22;7285;50.894;5.462;2024-01-30T13:09:09;11.90;99.90
14401;DHT22;7285;50.894;5.462;2024-01-30T13:11:35;11.70;99.90
14401;DHT22;7285;50.894;5.462;2024-01-30T13:14:04;11.70;99.90
14401;DHT22;7285;50.894;5.462;2024-01-30T13:16:31;11.50;99.90
14401;DHT22;7285;50.894;5.462;2024-01-30T13:18:57;11.50;99.90
14401;DHT22;7285;50.894;5.462;2024-01-30T13:21:26;11.50;99.90
14401;DHT22;7285;50.894;5.462;2024-01-30T13:23:53;11.50;99.90
14401;DHT22;7285;50.894;5.462;2024-01-30T13:26:20;11.40;99.90
14401;DHT22;7285;50.894;5.462;2024-01-30T13:28:47;11.40;99.90
14401;DHT22;7285;50.894;5.462;2024-01-30T13:31:16;11.30;99.90
14401;DHT22;7285;50.894;5.462;2024-01-30T13:33:44;11.30;99.90
14401;DHT22;7285;50.894;5.462;2024-01-30T13:36:11;11.30;99.90
14401;DHT22;7285;50.894;5.462;2024-01-30T13:38:38;11.30;99.90
14401;DHT22;7285;50.894;5.462;2024-01-30T13:41:05;11.20;99.90
14401;DHT22;7285;50.894;5.462;2024-01-30T13:43:32;11.20;99.90
14401;DHT22;7285;50.894;5.462;2024-01-30T13:45:59;11.20;99.90
14401;DHT22;7285;50.894;5.462;2024-01-30T13:48:28;11.20;99.90
14401;DHT22;7285;50.894;5.462;2024-01-30T13:50:55;11.20;99.90
14401;DHT22;7285;50.894;5.462;2024-01-30T13:53:22;11.30;99.90
14401;DHT22;7285;50.894;5.462;2024-01-30T13:55:49;11.20;99.90
14401;DHT22;7285;50.894;5.462;2024-01-30T13:58:16;11.10;99.90
14401;DHT22;7285;50.894;5.462;2024-01-30T14:00:43;11.20;99.90
14401;DHT22;7285;50.894;5.462;2024-01-30T14:03:10;11.20;99.90
14401;DHT22;7285;50.894;5.462;2024-01-30T14:05:38;11.20;99.90
14401;DHT22;7285;50.894;5.462;2024-01-30T14:08:06;11.20;99.90
14401;DHT22;7285;50.894;5.462;2024-01-30T14:10:34;11.20;99.90
14401;DHT22;7285;50.894;5.462;2024-01-30T14:13:01;11.20;99.90
14401;DHT22;7285;50.894;5.462;2024-01-30T14:15:28;11.10;99.90
14401;DHT22;7285;50.894;5.462;2024-01-30T14:17:55;11.10;99.90
14401;DHT22;7285;50.894;5.462;2024-01-30T14:20:22;11.10;99.90
14401;DHT22;7285;50.894;5.462;2024-01-30T14:22:50;11.10;99.90
14401;DHT22;7285;50.894;5.462;2024-01-30T14:25:18;11.20;99.90
14401;DHT22;7285;50.894;5.462;2024-01-30T14:27:45;11.20;99.90
14401;DHT22;7285;50.894;5.462;2024-01-30T14:30:12;11.20;99.90
14401;DHT22;7285;50.894;5.462;2024-01-30T14:32:39;11.20;99.90
14401;DHT22;7285;50.894;5.462;2024-01-30T14:35:08;11.10;99.90
14401;DHT22;7285;50.894;5.462;2024-01-30T14:37:36;11.40;99.90
14401;DHT22;7285;50.894;5.462;2024-01-30T14:40:06;11.70;99.90
14401;DHT22;7285;50.894;5.462;2024-01-30T14:42:33;11.80;99.90
14401;DHT22;7285;50.894;5.462;2024-01-30T14:45:01;12.10;99.90
14401;DHT22;7285;50.894;5.462;2024-01-30T14:47:28;12.30;99.90
14401;DHT22;7285;50.894;5.462;2024-01-30T14:49:56;12.30;99.90
14401;DHT22;7285;50.894;5.462;2024-01-30T14:52:23;12.70;99.90
14401;DHT22;7285;50.894;5.462;2024-01-30T14:54:50;12.50;99.90
14401;DHT22;7285;50.894;5.462;2024-01-30T14:57:18;12.60;99.90
14401;DHT22;7285;50.894;5.462;2024-01-30T14:59:45;12.60;99.90
14401;DHT22;7285;50.894;5.462;2024-01-30T15:02:14;12.40;99.90
14401;DHT22;7285;50.894;5.462;2024-01-30T15:04:41;12.40;99.90
14401;DHT22;7285;50.894;5.462;2024-01-30T15:07:08;12.10;99.90
14401;DHT22;7285;50.894;5.462;2024-01-30T15:09:35;11.90;99.90
14401;DHT22;7285;50.894;5.462;2024-01-30T15:12:02;11.60;99.90
14401;DHT22;7285;50.894;5.462;2024-01-30T15:14:30;11.50;99.90
14401;DHT22;7285;50.894;5.462;2024-01-30T15:16:57;11.30;99.90
14401;DHT22;7285;50.894;5.462;2024-01-30T15:19:24;11.30;99.90
14401;DHT22;7285;50.894;5.462;2024-01-30T15:21:51;11.10;99.90
14401;DHT22;7285;50.894;5.462;2024-01-30T15:24:18;11.00;99.90
14401;DHT22;7285;50.894;5.462;2024-01-30T15:26:49;10.90;99.90
14401;DHT22;7285;50.894;5.462;2024-01-30T15:29:16;10.90;99.90
14401;DHT22;7285;50.894;5.462;2024-01-30T15:31:45;10.80;99.90
14401;DHT22;7285;50.894;5.462;2024-01-30T15:34:11;10.70;99.90
14401;DHT22;7285;50.894;5.462;2024-01-30T15:36:38;10.70;99.90
14401;DHT22;7285;50.894;5.462;2024-01-30T15:39:05;10.60;99.90
14401;DHT22;7285;50.894;5.462;2024-01-30T15:41:32;10.60;99.90
14401;DHT22;7285;50.894;5.462;2024-01-30T15:43:59;10.50;99.90
14401;DHT22;7285;50.894;5.462;2024-01-30T15:46:28;10.50;99.90
14401;DHT22;7285;50.894;5.462;2024-01-30T15:48:56;10.40;99.90
14401;DHT22;7285;50.894;5.462;2024-01-30T15:51:23;10.40;99.90
14401;DHT22;7285;50.894;5.462;2024-01-30T15:53:50;10.40;99.90
14401;DHT22;7285;50.894;5.462;2024-01-30T15:56:17;10.30;99.90